createdAt,value
2023-04-02T00:00:57.393Z,100.00
2023-04-02T00:03:24.652Z,100.00
2023-04-02T00:05:51.928Z,100.00
2023-04-02T00:08:26.072Z,100.00
2023-04-02T00:10:54.808Z,100.00
2023-04-02T00:13:35.776Z,100.00
2023-04-02T00:16:04.220Z,100.00
2023-04-02T00:18:33.196Z,100.00
2023-04-02T00:21:32.549Z,100.00
2023-04-02T00:24:01.556Z,100.00
2023-04-02T00:26:35.159Z,100.00
2023-04-02T00:29:04.164Z,100.00
2023-04-02T00:31:32.679Z,100.00
2023-04-02T00:34:02.582Z,100.00
2023-04-02T00:36:36.425Z,100.00
2023-04-02T00:39:12.301Z,100.00
2023-04-02T00:41:39.558Z,100.00
2023-04-02T00:44:06.755Z,100.00
2023-04-02T00:46:47.388Z,100.00
2023-04-02T00:49:27.309Z,100.00
2023-04-02T00:52:02.099Z,100.00
2023-04-02T00:54:33.037Z,100.00
2023-04-02T00:57:00.245Z,100.00
2023-04-02T00:59:27.310Z,100.00
2023-04-02T01:02:18.735Z,100.00
2023-04-02T01:05:13.671Z,100.00
2023-04-02T01:08:26.039Z,100.00
2023-04-02T01:11:04.579Z,100.00
2023-04-02T01:13:31.671Z,100.00
2023-04-02T01:16:23.641Z,100.00
2023-04-02T01:19:13.881Z,100.00
2023-04-02T01:21:52.969Z,100.00
2023-04-02T01:24:21.891Z,100.00
2023-04-02T01:26:53.936Z,100.00
2023-04-02T01:29:46.874Z,100.00
2023-04-02T01:32:19.948Z,100.00
2023-04-02T01:34:48.761Z,100.00
2023-04-02T01:37:49.747Z,100.00
2023-04-02T01:40:22.826Z,100.00
2023-04-02T01:42:56.927Z,100.00
2023-04-02T01:45:24.750Z,100.00
2023-04-02T01:47:52.727Z,100.00
2023-04-02T01:50:19.804Z,100.00
2023-04-02T01:52:50.464Z,100.00
2023-04-02T01:55:26.390Z,100.00
2023-04-02T01:57:54.799Z,100.00
2023-04-02T02:00:22.903Z,100.00
2023-04-02T02:02:54.935Z,100.00
2023-04-02T02:05:23.641Z,100.00
2023-04-02T02:07:54.742Z,100.00
2023-04-02T02:10:27.086Z,100.00
2023-04-02T02:12:55.152Z,100.00
2023-04-02T02:15:24.315Z,100.00
2023-04-02T02:17:58.471Z,100.00
2023-04-02T02:20:28.213Z,100.00
2023-04-02T02:22:57.491Z,100.00
2023-04-02T02:25:28.152Z,100.00
2023-04-02T02:27:59.341Z,100.00
2023-04-02T02:30:29.904Z,100.00
2023-04-02T02:33:03.887Z,100.00
2023-04-02T02:35:58.843Z,100.00
2023-04-02T02:38:54.452Z,100.00
2023-04-02T02:41:41.695Z,100.00
2023-04-02T02:44:09.835Z,100.00
2023-04-02T02:46:43.632Z,100.00
2023-04-02T02:49:26.251Z,100.00
2023-04-02T02:52:04.163Z,100.00
2023-04-02T02:54:42.474Z,100.00
2023-04-02T02:57:16.193Z,100.00
2023-04-02T02:59:46.110Z,100.00
2023-04-02T03:02:16.296Z,100.00
2023-04-02T03:04:53.688Z,100.00
2023-04-02T03:07:27.446Z,100.00
2023-04-02T03:10:12.970Z,100.00
2023-04-02T03:12:57.746Z,100.00
2023-04-02T03:15:55.773Z,100.00
2023-04-02T03:18:35.668Z,100.00
2023-04-02T03:21:27.856Z,100.00
2023-04-02T03:24:04.038Z,100.00
2023-04-02T03:26:46.128Z,100.00
2023-04-02T03:29:13.266Z,100.00
2023-04-02T03:31:47.463Z,100.00
2023-04-02T03:34:54.813Z,100.00
2023-04-02T03:37:44.382Z,100.00
2023-04-02T03:40:20.983Z,100.00
2023-04-02T03:42:58.039Z,100.00
2023-04-02T03:45:36.732Z,100.00
2023-04-02T03:48:41.092Z,100.00
2023-04-02T03:52:00.651Z,100.00
2023-04-02T03:54:28.593Z,100.00
2023-04-02T03:56:55.969Z,100.00
2023-04-02T03:59:47.501Z,100.00
2023-04-02T04:02:59.272Z,100.00
2023-04-02T04:05:32.864Z,100.00
2023-04-02T04:08:06.602Z,100.00
2023-04-02T04:10:35.684Z,100.00
2023-04-02T04:13:10.080Z,100.00
2023-04-02T04:15:51.746Z,100.00
2023-04-02T04:18:43.894Z,100.00
2023-04-02T04:21:31.449Z,100.00
2023-04-02T04:24:22.260Z,100.00
2023-04-02T04:26:58.539Z,100.00
2023-04-02T04:30:03.490Z,100.00
2023-04-02T04:32:50.206Z,100.00
2023-04-02T04:35:33.183Z,100.00
2023-04-02T04:38:14.870Z,100.00
2023-04-02T04:40:56.706Z,100.00
2023-04-02T04:43:39.175Z,100.00
2023-04-02T04:46:13.825Z,100.00
2023-04-02T04:49:02.962Z,100.00
2023-04-02T04:52:07.401Z,100.00
2023-04-02T04:54:39.207Z,100.00
2023-04-02T04:57:22.464Z,100.00
2023-04-02T05:00:17.604Z,100.00
2023-04-02T05:02:57.832Z,100.00
2023-04-02T05:05:31.149Z,100.00
2023-04-02T05:08:13.856Z,100.00
2023-04-02T05:10:49.276Z,100.00
2023-04-02T05:13:34.862Z,100.00
2023-04-02T05:16:16.579Z,100.00
2023-04-02T05:18:50.726Z,100.00
2023-04-02T05:21:29.221Z,100.00
2023-04-02T05:24:22.817Z,100.00
2023-04-02T05:26:52.135Z,100.00
2023-04-02T05:29:33.441Z,100.00
2023-04-02T05:32:07.505Z,100.00
2023-04-02T05:34:38.428Z,100.00
2023-04-02T05:37:07.297Z,100.00
2023-04-02T05:39:35.393Z,100.00
2023-04-02T05:42:14.688Z,100.00
2023-04-02T05:44:56.857Z,100.00
2023-04-02T05:47:29.089Z,100.00
2023-04-02T05:50:08.654Z,100.00
2023-04-02T05:52:52.197Z,100.00
2023-04-02T05:55:38.177Z,100.00
2023-04-02T05:58:34.478Z,100.00
2023-04-02T06:01:15.488Z,100.00
2023-04-02T06:03:50.737Z,100.00
2023-04-02T06:06:33.422Z,100.00
2023-04-02T06:09:08.751Z,100.00
2023-04-02T06:11:47.901Z,100.00
2023-04-02T06:14:18.209Z,100.00
2023-04-02T06:16:47.265Z,100.00
2023-04-02T06:19:25.860Z,100.00
2023-04-02T06:22:00.682Z,100.00
2023-04-02T06:24:31.156Z,100.00
2023-04-02T06:27:06.601Z,100.00
2023-04-02T06:29:40.343Z,100.00
2023-04-02T06:32:12.829Z,100.00
2023-04-02T06:34:43.120Z,100.00
2023-04-02T06:37:24.931Z,97.65
2023-04-02T06:39:59.602Z,98.29
2023-04-02T06:42:34.281Z,98.10
2023-04-02T06:45:01.753Z,96.74
2023-04-02T06:47:51.895Z,97.41
2023-04-02T06:50:53.053Z,95.32
2023-04-02T06:53:27.694Z,94.53
2023-04-02T06:56:05.333Z,94.15
2023-04-02T06:58:33.573Z,94.78
2023-04-02T07:01:01.671Z,95.41
2023-04-02T07:03:40.452Z,94.66
2023-04-02T07:06:21.383Z,93.95
2023-04-02T07:08:50.759Z,95.48
2023-04-02T07:11:22.058Z,96.14
2023-04-02T07:13:51.826Z,94.48
2023-04-02T07:16:22.628Z,93.37
2023-04-02T07:18:49.987Z,96.84
2023-04-02T07:21:17.762Z,94.67
2023-04-02T07:23:46.598Z,93.85
2023-04-02T07:26:16.642Z,94.37
2023-04-02T07:28:44.364Z,93.98
2023-04-02T07:31:20.808Z,93.07
2023-04-02T07:33:48.218Z,92.46
2023-04-02T07:36:21.468Z,92.05
2023-04-02T07:38:48.660Z,90.38
2023-04-02T07:41:18.192Z,91.09
2023-04-02T07:43:45.634Z,93.14
2023-04-02T07:46:15.323Z,94.50
2023-04-02T07:48:43.160Z,93.50
2023-04-02T07:51:25.965Z,91.54
2023-04-02T07:53:56.572Z,93.85
2023-04-02T07:56:25.217Z,90.20
2023-04-02T07:58:52.476Z,90.98
2023-04-02T08:01:27.567Z,90.59
2023-04-02T08:03:56.746Z,90.90
2023-04-02T08:06:25.122Z,91.23
2023-04-02T08:08:52.368Z,91.56
2023-04-02T08:11:19.530Z,90.93
2023-04-02T08:13:46.916Z,91.37
2023-04-02T08:16:14.240Z,90.44
2023-04-02T08:18:41.655Z,89.84
2023-04-02T08:21:27.216Z,90.25
2023-04-02T08:23:54.299Z,90.82
2023-04-02T08:26:22.070Z,91.56
2023-04-02T08:28:49.190Z,93.63
2023-04-02T08:31:17.382Z,90.59
2023-04-02T08:33:44.492Z,91.61
2023-04-02T08:36:17.257Z,89.59
2023-04-02T08:38:44.759Z,89.89
2023-04-02T08:41:27.709Z,89.50
2023-04-02T08:44:08.690Z,90.89
2023-04-02T08:46:38.940Z,90.06
2023-04-02T08:49:14.852Z,90.73
2023-04-02T08:51:42.111Z,89.33
2023-04-02T08:54:24.349Z,92.05
2023-04-02T08:57:00.759Z,90.03
2023-04-02T08:59:39.001Z,92.62
2023-04-02T09:02:41.661Z,92.24
2023-04-02T09:05:18.655Z,91.82
2023-04-02T09:07:49.035Z,90.14
2023-04-02T09:10:17.079Z,91.40
2023-04-02T09:12:48.855Z,92.30
2023-04-02T09:15:34.453Z,90.32
2023-04-02T09:18:16.845Z,90.52
2023-04-02T09:20:45.605Z,91.38
2023-04-02T09:23:21.112Z,90.36
2023-04-02T09:26:03.564Z,92.18
2023-04-02T09:28:31.962Z,93.13
2023-04-02T09:31:26.277Z,89.63
2023-04-02T09:33:54.821Z,91.74
2023-04-02T09:36:39.770Z,92.11
2023-04-02T09:39:17.764Z,92.03
2023-04-02T09:41:50.216Z,90.31
2023-04-02T09:44:27.786Z,89.33
2023-04-02T09:47:25.828Z,90.15
2023-04-02T09:49:53.002Z,90.41
2023-04-02T09:52:30.106Z,87.40
2023-04-02T09:55:18.299Z,88.66
2023-04-02T09:57:47.255Z,89.55
2023-04-02T10:00:25.913Z,90.47
2023-04-02T10:03:19.696Z,91.62
2023-04-02T10:05:47.641Z,93.20
2023-04-02T10:08:28.241Z,98.84
2023-04-02T10:11:01.998Z,97.85
2023-04-02T10:13:42.379Z,98.01
2023-04-02T10:16:35.017Z,95.34
2023-04-02T10:19:22.916Z,96.79
2023-04-02T10:21:50.695Z,94.82
2023-04-02T10:24:18.255Z,95.14
2023-04-02T10:26:52.610Z,97.05
2023-04-02T10:29:31.415Z,97.27
2023-04-02T10:32:12.523Z,96.70
2023-04-02T10:34:43.992Z,94.14
2023-04-02T10:37:26.746Z,98.51
2023-04-02T10:40:19.910Z,93.59
2023-04-02T10:43:34.628Z,93.72
2023-04-02T10:46:29.479Z,94.11
2023-04-02T10:49:26.284Z,93.08
2023-04-02T10:52:13.724Z,96.42
2023-04-02T10:54:46.979Z,91.83
2023-04-02T10:57:16.822Z,89.79
2023-04-02T10:59:49.222Z,92.01
2023-04-02T11:02:32.093Z,91.83
2023-04-02T11:05:03.676Z,90.41
2023-04-02T11:07:46.525Z,88.58
2023-04-02T11:10:19.773Z,86.77
2023-04-02T11:13:03.511Z,88.68
2023-04-02T11:15:30.990Z,87.53
2023-04-02T11:17:58.438Z,87.63
2023-04-02T11:20:44.350Z,84.96
2023-04-02T11:23:20.155Z,83.87
2023-04-02T11:25:48.367Z,84.67
2023-04-02T11:28:29.015Z,86.87
2023-04-02T11:30:57.354Z,85.66
2023-04-02T11:33:39.340Z,86.30
2023-04-02T11:36:49.982Z,85.88
2023-04-02T11:40:08.325Z,84.57
2023-04-02T11:42:37.316Z,92.38
2023-04-02T11:45:22.806Z,89.66
2023-04-02T11:48:02.172Z,86.49
2023-04-02T11:50:40.988Z,86.15
2023-04-02T11:53:11.679Z,83.41
2023-04-02T11:55:40.026Z,83.68
2023-04-02T11:58:10.521Z,85.87
2023-04-02T12:00:58.706Z,86.34
2023-04-02T12:03:42.722Z,86.18
2023-04-02T12:06:35.413Z,83.50
2023-04-02T12:09:21.018Z,81.61
2023-04-02T12:11:51.938Z,81.27
2023-04-02T12:14:45.870Z,82.19
2023-04-02T12:17:38.775Z,81.41
2023-04-02T12:20:13.814Z,81.20
2023-04-02T12:22:47.671Z,81.00
2023-04-02T12:25:27.174Z,81.27
2023-04-02T12:28:10.141Z,81.56
2023-04-02T12:30:41.596Z,82.18
2023-04-02T12:33:30.542Z,82.13
2023-04-02T12:36:02.897Z,81.27
2023-04-02T12:38:31.137Z,82.21
2023-04-02T12:41:00.823Z,82.68
2023-04-02T12:43:30.958Z,80.99
2023-04-02T12:46:01.223Z,81.44
2023-04-02T12:48:29.474Z,81.11
2023-04-02T12:50:57.626Z,81.45
2023-04-02T12:53:33.111Z,79.78
2023-04-02T12:56:00.976Z,78.46
2023-04-02T12:58:57.590Z,77.67
2023-04-02T13:01:28.366Z,77.55
2023-04-02T13:04:09.060Z,75.80
2023-04-02T13:06:36.708Z,76.54
2023-04-02T13:09:06.901Z,76.92
2023-04-02T13:11:41.549Z,77.68
2023-04-02T13:14:18.434Z,76.24
2023-04-02T13:16:46.321Z,80.03
2023-04-02T13:19:29.047Z,79.37
2023-04-02T13:21:58.172Z,78.94
2023-04-02T13:24:28.100Z,78.30
2023-04-02T13:26:58.670Z,78.44
2023-04-02T13:29:33.980Z,76.22
2023-04-02T13:32:12.548Z,77.69
2023-04-02T13:34:39.680Z,77.68
2023-04-02T13:37:06.783Z,76.79
2023-04-02T13:39:33.965Z,75.77
2023-04-02T13:42:03.867Z,76.09
2023-04-02T13:44:33.085Z,74.48
2023-04-02T13:47:01.381Z,74.98
2023-04-02T13:49:29.174Z,74.58
2023-04-02T13:52:05.473Z,74.43
2023-04-02T13:54:44.845Z,77.22
2023-04-02T13:57:12.127Z,77.71
2023-04-02T13:59:39.340Z,74.57
2023-04-02T14:02:10.624Z,76.04
2023-04-02T14:04:50.795Z,75.07
2023-04-02T14:07:56.701Z,74.42
2023-04-02T14:10:58.902Z,73.76
2023-04-02T14:14:18.048Z,74.51
2023-04-02T14:16:55.481Z,73.69
2023-04-02T14:19:29.786Z,73.51
2023-04-02T14:21:59.555Z,73.85
2023-04-02T14:24:48.693Z,73.68
2023-04-02T14:27:36.976Z,74.34
2023-04-02T14:30:08.752Z,74.15
2023-04-02T14:32:59.309Z,74.87
2023-04-02T14:35:31.623Z,73.87
2023-04-02T14:38:42.132Z,74.96
2023-04-02T14:41:41.588Z,73.56
2023-04-02T14:44:11.452Z,74.60
2023-04-02T14:46:39.683Z,74.27
2023-04-02T14:49:07.789Z,74.21
2023-04-02T14:51:40.973Z,74.70
2023-04-02T14:54:29.118Z,74.64
2023-04-02T14:57:21.635Z,74.05
2023-04-02T14:59:56.813Z,73.12
2023-04-02T15:02:45.074Z,73.21
2023-04-02T15:05:22.822Z,72.87
2023-04-02T15:08:07.280Z,72.98
2023-04-02T15:10:49.013Z,73.97
2023-04-02T15:13:22.874Z,75.00
2023-04-02T15:15:56.652Z,74.29
2023-04-02T15:18:25.556Z,74.72
2023-04-02T15:21:29.586Z,74.41
2023-04-02T15:24:13.310Z,74.32
2023-04-02T15:27:14.787Z,73.79
2023-04-02T15:30:12.390Z,73.11
2023-04-02T15:32:41.486Z,74.00
2023-04-02T15:35:16.111Z,73.61
2023-04-02T15:37:54.290Z,74.52
2023-04-02T15:40:42.335Z,73.57
2023-04-02T15:43:18.664Z,74.64
2023-04-02T15:46:06.393Z,74.17
2023-04-02T15:49:15.511Z,73.43
2023-04-02T15:51:59.500Z,73.34
2023-04-02T15:54:29.518Z,74.12
2023-04-02T15:57:14.731Z,73.59
2023-04-02T16:00:14.188Z,73.75
2023-04-02T16:03:18.872Z,73.44
2023-04-02T16:06:29.043Z,73.69
2023-04-02T16:09:17.342Z,73.12
2023-04-02T16:11:44.492Z,73.25
2023-04-02T16:14:28.055Z,72.54
2023-04-02T16:17:03.850Z,73.36
2023-04-02T16:20:13.464Z,73.49
2023-04-02T16:22:53.402Z,73.46
2023-04-02T16:25:31.473Z,73.65
2023-04-02T16:28:07.353Z,73.14
2023-04-02T16:30:57.412Z,74.06
2023-04-02T16:33:42.482Z,73.76
2023-04-02T16:36:27.990Z,72.78
2023-04-02T16:39:16.748Z,72.93
2023-04-02T16:42:02.359Z,71.83
2023-04-02T16:44:57.977Z,73.60
2023-04-02T16:47:56.219Z,73.28
2023-04-02T16:50:34.859Z,73.97
2023-04-02T16:53:08.469Z,74.65
2023-04-02T16:55:46.217Z,74.88
2023-04-02T16:58:34.725Z,74.58
2023-04-02T17:01:17.013Z,74.16
2023-04-02T17:03:56.946Z,75.15
2023-04-02T17:06:24.081Z,74.29
2023-04-02T17:09:15.945Z,73.93
2023-04-02T17:11:51.316Z,74.00
2023-04-02T17:14:37.009Z,74.91
2023-04-02T17:17:05.154Z,74.77
2023-04-02T17:19:32.959Z,73.30
2023-04-02T17:22:03.821Z,74.16
2023-04-02T17:24:58.344Z,73.78
2023-04-02T17:27:35.611Z,73.67
2023-04-02T17:30:13.218Z,73.61
2023-04-02T17:32:40.495Z,74.14
2023-04-02T17:35:40.182Z,73.27
2023-04-02T17:38:25.124Z,74.07
2023-04-02T17:41:18.250Z,73.16
2023-04-02T17:44:10.436Z,74.46
2023-04-02T17:47:03.215Z,73.84
2023-04-02T17:49:45.486Z,73.64
2023-04-02T17:52:28.889Z,73.19
2023-04-02T17:55:17.496Z,73.10
2023-04-02T17:58:32.625Z,72.70
2023-04-02T18:01:30.529Z,73.05
2023-04-02T18:04:28.777Z,73.13
2023-04-02T18:07:22.283Z,72.41
2023-04-02T18:10:07.838Z,73.73
2023-04-02T18:12:49.334Z,73.44
2023-04-02T18:15:55.641Z,73.05
2023-04-02T18:18:34.622Z,73.58
2023-04-02T18:21:29.062Z,72.74
2023-04-02T18:24:17.432Z,72.25
2023-04-02T18:27:21.675Z,72.59
2023-04-02T18:29:55.398Z,73.16
2023-04-02T18:32:25.357Z,72.51
2023-04-02T18:34:55.386Z,72.67
2023-04-02T18:37:48.751Z,73.21
2023-04-02T18:40:36.891Z,73.15
2023-04-02T18:43:23.237Z,72.78
2023-04-02T18:46:27.351Z,73.30
2023-04-02T18:49:01.280Z,72.98
2023-04-02T18:51:35.702Z,72.56
2023-04-02T18:54:34.158Z,71.94
2023-04-02T18:57:24.051Z,71.92
2023-04-02T19:00:26.685Z,73.63
2023-04-02T19:03:00.542Z,73.08
2023-04-02T19:05:51.492Z,73.24
2023-04-02T19:08:47.145Z,73.39
2023-04-02T19:11:28.540Z,74.08
2023-04-02T19:13:59.848Z,74.01
2023-04-02T19:16:54.554Z,73.87
2023-04-02T19:19:26.484Z,73.89
2023-04-02T19:22:12.818Z,74.60
2023-04-02T19:25:01.448Z,73.87
2023-04-02T19:27:34.447Z,73.92
2023-04-02T19:30:25.737Z,74.89
2023-04-02T19:33:21.601Z,74.59
2023-04-02T19:36:05.835Z,75.02
2023-04-02T19:38:46.635Z,75.15
2023-04-02T19:41:30.661Z,75.84
2023-04-02T19:43:58.078Z,76.20
2023-04-02T19:46:26.317Z,76.54
2023-04-02T19:49:10.008Z,76.47
2023-04-02T19:51:37.219Z,76.75
2023-04-02T19:54:04.596Z,76.69
2023-04-02T19:56:31.951Z,75.69
2023-04-02T19:59:02.302Z,76.34
2023-04-02T20:01:32.246Z,75.99
2023-04-02T20:03:59.427Z,75.20
2023-04-02T20:06:27.285Z,75.43
2023-04-02T20:08:54.540Z,74.75
2023-04-02T20:11:21.628Z,75.31
2023-04-02T20:13:50.187Z,76.31
2023-04-02T20:16:17.322Z,76.17
2023-04-02T20:18:44.451Z,75.54
2023-04-02T20:21:11.633Z,74.93
2023-04-02T20:23:38.771Z,76.99
2023-04-02T20:26:06.408Z,77.27
2023-04-02T20:28:34.263Z,76.04
2023-04-02T20:31:16.812Z,75.82
2023-04-02T20:33:44.736Z,76.90
2023-04-02T20:36:17.769Z,76.98
2023-04-02T20:38:45.914Z,76.37
2023-04-02T20:41:15.750Z,76.72
2023-04-02T20:43:42.931Z,76.01
2023-04-02T20:46:12.751Z,75.62
2023-04-02T20:48:40.492Z,76.07
2023-04-02T20:51:09.186Z,75.80
2023-04-02T20:53:37.905Z,75.68
2023-04-02T20:56:14.521Z,76.50
2023-04-02T20:58:42.459Z,76.72
2023-04-02T21:01:12.608Z,76.06
2023-04-02T21:03:40.069Z,75.46
2023-04-02T21:06:18.608Z,77.89
2023-04-02T21:08:46.664Z,77.17
2023-04-02T21:11:14.624Z,76.52
2023-04-02T21:13:44.200Z,77.14
2023-04-02T21:16:19.249Z,77.39
2023-04-02T21:18:48.213Z,77.62
2023-04-02T21:21:16.402Z,77.38
2023-04-02T21:23:44.991Z,77.36
2023-04-02T21:26:15.884Z,77.50
2023-04-02T21:28:43.759Z,77.87
2023-04-02T21:31:14.719Z,77.51
2023-04-02T21:33:47.468Z,78.93
2023-04-02T21:36:20.380Z,78.43
2023-04-02T21:38:50.174Z,77.84
2023-04-02T21:41:26.631Z,79.08
2023-04-02T21:43:54.861Z,79.58
2023-04-02T21:46:25.068Z,79.59
2023-04-02T21:48:53.803Z,79.04
2023-04-02T21:51:24.240Z,79.35
2023-04-02T21:53:54.186Z,79.62
2023-04-02T21:56:26.660Z,78.86
2023-04-02T21:58:54.421Z,78.73
2023-04-02T22:01:27.165Z,78.46
2023-04-02T22:03:59.286Z,79.43
2023-04-02T22:06:28.687Z,79.92
2023-04-02T22:08:59.351Z,79.62
2023-04-02T22:11:32.438Z,78.49
2023-04-02T22:14:00.186Z,77.78
2023-04-02T22:16:29.807Z,82.13
2023-04-02T22:19:01.041Z,82.27
2023-04-02T22:21:29.811Z,81.92
2023-04-02T22:24:00.817Z,83.82
2023-04-02T22:26:28.445Z,83.66
2023-04-02T22:28:55.639Z,81.92
2023-04-02T22:31:25.276Z,81.16
2023-04-02T22:33:53.902Z,79.31
2023-04-02T22:36:22.726Z,77.06
2023-04-02T22:38:50.310Z,78.93
2023-04-02T22:41:23.701Z,78.82
2023-04-02T22:43:50.837Z,77.88
2023-04-02T22:46:19.241Z,79.00
2023-04-02T22:48:47.524Z,78.20
2023-04-02T22:51:17.641Z,78.50
2023-04-02T22:53:45.730Z,78.06
2023-04-02T22:56:18.284Z,77.90
2023-04-02T22:58:45.770Z,77.07
2023-04-02T23:01:21.418Z,77.11
2023-04-02T23:03:49.528Z,76.80
2023-04-02T23:06:18.268Z,78.36
2023-04-02T23:08:46.611Z,78.56
2023-04-02T23:11:26.090Z,78.02
2023-04-02T23:13:55.357Z,77.81
2023-04-02T23:16:23.245Z,77.35
2023-04-02T23:18:51.278Z,77.62
2023-04-02T23:21:20.290Z,77.90
2023-04-02T23:23:48.061Z,77.92
2023-04-02T23:26:18.513Z,78.23
2023-04-02T23:28:46.000Z,78.64
2023-04-02T23:31:16.361Z,77.96
2023-04-02T23:33:43.943Z,78.64
2023-04-02T23:36:16.592Z,78.27
2023-04-02T23:38:43.720Z,78.19
2023-04-02T23:41:15.952Z,78.37
2023-04-02T23:43:43.532Z,77.80
2023-04-02T23:46:10.881Z,78.87
2023-04-02T23:48:38.052Z,79.44
2023-04-02T23:51:06.005Z,77.84
2023-04-02T23:53:34.636Z,77.98
2023-04-02T23:56:01.776Z,77.59
2023-04-02T23:58:29.080Z,77.73
